createdAt,value
2018-12-15T06:00:25.153Z,2.10
2018-12-15T06:02:58.781Z,2.10
2018-12-15T06:05:32.952Z,2.10
2018-12-15T06:08:06.970Z,2.10
2018-12-15T06:10:40.784Z,2.10
2018-12-15T06:13:14.317Z,2.10
2018-12-15T06:15:47.976Z,2.10
2018-12-15T06:18:31.437Z,2.20
2018-12-15T06:21:00.319Z,2.20
2018-12-15T06:23:27.836Z,2.20
2018-12-15T06:26:02.116Z,2.40
2018-12-15T06:28:35.043Z,2.20
2018-12-15T06:31:08.872Z,2.20
2018-12-15T06:33:42.468Z,2.30
2018-12-15T06:36:16.038Z,2.30
2018-12-15T06:38:49.877Z,2.40
2018-12-15T06:41:22.813Z,2.30
2018-12-15T06:44:00.676Z,2.30
2018-12-15T06:46:34.346Z,2.30
2018-12-15T06:49:08.065Z,2.40
2018-12-15T06:51:41.951Z,2.30
2018-12-15T06:54:15.788Z,2.30
2018-12-15T06:56:48.747Z,2.40
2018-12-15T06:59:22.561Z,2.40
2018-12-15T07:02:06.924Z,2.30
2018-12-15T07:04:40.271Z,2.30
2018-12-15T07:07:13.300Z,2.30
2018-12-15T07:09:47.103Z,2.30
2018-12-15T07:12:20.716Z,2.30
2018-12-15T07:14:54.317Z,2.30
2018-12-15T07:17:27.435Z,2.30
2018-12-15T07:20:01.243Z,2.30
2018-12-15T07:22:35.352Z,2.30
2018-12-15T07:25:09.534Z,2.20
2018-12-15T07:27:43.341Z,2.30
2018-12-15T07:30:17.353Z,2.30
2018-12-15T07:33:01.556Z,2.30
2018-12-15T07:35:34.860Z,2.30
2018-12-15T07:38:08.643Z,2.30
2018-12-15T07:40:42.348Z,2.30
2018-12-15T16:31:58.524Z,2.30
2018-12-15T16:34:33.905Z,2.40
2018-12-15T16:37:07.404Z,2.40
2018-12-15T16:39:45.827Z,2.40
2018-12-15T16:42:20.554Z,2.50
2018-12-15T16:44:54.528Z,2.40
2018-12-15T16:47:27.951Z,2.40
2018-12-15T16:50:04.958Z,2.40
2018-12-15T16:52:40.526Z,2.50
2018-12-15T16:55:22.003Z,2.40
2018-12-15T16:57:56.420Z,2.50
2018-12-15T17:00:29.835Z,2.50
2018-12-15T17:03:12.204Z,2.50
2018-12-15T17:05:45.900Z,2.50
2018-12-15T17:08:20.158Z,2.50
2018-12-15T17:13:59.734Z,2.40
2018-12-15T17:16:35.077Z,2.40
2018-12-15T17:19:12.291Z,2.40
2018-12-15T17:21:57.460Z,2.50
2018-12-15T17:24:30.995Z,2.50
2018-12-15T17:27:15.480Z,2.50
2018-12-15T17:29:50.470Z,2.40
2018-12-15T17:32:30.773Z,2.40
2018-12-15T17:35:05.324Z,2.40
2018-12-15T17:37:39.870Z,2.40
2018-12-15T17:40:14.765Z,2.40
2018-12-15T17:42:49.074Z,2.40
2018-12-15T17:45:30.966Z,2.30
2018-12-15T17:51:03.231Z,2.30
2018-12-15T17:53:34.656Z,2.30
2018-12-15T17:56:13.407Z,2.30
2018-12-15T17:58:51.986Z,2.30
2018-12-15T18:01:26.315Z,2.30
2018-12-15T18:04:00.268Z,2.30
2018-12-15T18:06:34.266Z,2.30
2018-12-15T18:11:58.235Z,2.20
2018-12-15T18:14:32.897Z,2.20
2018-12-15T18:17:11.786Z,2.20
2018-12-15T18:19:48.065Z,2.10
2018-12-15T18:22:33.156Z,2.20
2018-12-15T18:25:11.422Z,2.20
2018-12-15T18:30:53.810Z,2.20
2018-12-15T18:33:28.653Z,2.20
2018-12-15T18:36:15.689Z,2.20
2018-12-15T18:39:02.219Z,2.20
2018-12-15T18:41:39.278Z,2.20
2018-12-15T18:44:28.049Z,2.20
2018-12-15T18:47:02.448Z,2.20
2018-12-15T18:49:39.306Z,2.20
2018-12-15T18:52:13.754Z,2.10
2018-12-15T18:54:48.453Z,2.10
2018-12-15T18:57:30.399Z,2.10
2018-12-15T19:00:12.041Z,2.10
2018-12-15T19:02:50.342Z,2.10
2018-12-15T19:05:24.953Z,2.20
2018-12-15T19:07:58.644Z,2.10
2018-12-15T19:10:32.142Z,2.10
2018-12-15T19:13:05.792Z,2.10
2018-12-15T19:15:47.445Z,2.10
2018-12-15T19:18:21.417Z,2.10
2018-12-15T19:20:55.203Z,2.00
2018-12-15T19:23:33.063Z,2.00
2018-12-15T19:26:10.898Z,2.10
2018-12-15T19:28:44.848Z,2.00
2018-12-15T19:31:21.147Z,2.00
2018-12-15T19:33:54.999Z,2.00
2018-12-15T19:36:28.730Z,1.90
2018-12-15T19:39:09.167Z,1.90
2018-12-15T19:41:45.625Z,1.90
2018-12-15T19:47:23.025Z,1.90
2018-12-15T19:49:57.830Z,1.80
2018-12-15T19:52:34.525Z,1.80
2018-12-15T19:55:10.787Z,1.80
2018-12-15T19:57:47.438Z,1.80
2018-12-15T20:00:35.021Z,1.80
2018-12-15T20:03:13.080Z,1.70
2018-12-15T20:05:56.507Z,1.70
2018-12-15T20:08:59.928Z,1.70
2018-12-15T20:14:33.813Z,1.70
2018-12-15T20:17:13.226Z,1.70
2018-12-15T20:20:04.089Z,1.70
2018-12-15T20:25:44.318Z,1.60
2018-12-15T20:31:34.443Z,1.50
2018-12-15T20:34:18.768Z,1.40
2018-12-15T20:37:02.996Z,1.40
2018-12-15T20:39:55.344Z,1.30
2018-12-15T20:48:35.875Z,1.20
2018-12-15T20:51:09.973Z,1.20
2018-12-15T20:53:48.263Z,1.20
2018-12-15T20:56:30.601Z,1.20
2018-12-15T20:59:18.390Z,1.20
2018-12-15T21:02:02.787Z,1.20
2018-12-15T21:04:45.952Z,1.20
2018-12-15T21:07:23.849Z,1.20
2018-12-15T21:10:15.524Z,1.20
2018-12-15T21:12:54.354Z,1.20
2018-12-15T21:15:44.446Z,1.20
2018-12-15T21:18:28.759Z,1.20
2018-12-15T21:21:12.995Z,1.20
2018-12-15T21:23:57.399Z,1.20
2018-12-15T21:26:47.560Z,1.10
2018-12-15T21:29:33.488Z,1.00
2018-12-15T21:35:21.516Z,1.00
2018-12-15T21:38:03.372Z,1.00
2018-12-15T21:43:35.261Z,1.10
2018-12-15T21:46:16.394Z,1.10
2018-12-15T21:52:00.096Z,1.10
2018-12-15T21:54:42.079Z,1.10
2018-12-15T21:57:23.379Z,1.00
2018-12-15T22:00:15.661Z,0.90
2018-12-15T22:03:02.747Z,1.00
2018-12-15T22:05:42.503Z,1.00
2018-12-15T22:08:15.687Z,1.00
2018-12-15T22:10:49.457Z,1.10
2018-12-15T22:13:27.182Z,1.10
2018-12-15T22:16:00.849Z,1.00
2018-12-15T22:18:35.527Z,1.10
2018-12-15T22:21:09.075Z,1.10
2018-12-15T22:23:42.721Z,1.00
2018-12-15T22:26:16.894Z,1.00
